Tiempo atmosférico en la estación meteorológica de Mérida, Badajoz (220 m.)



Fecha
DESCASC
Temp. máxima en grados centígrados (hora)
DESCASC
Temp. mínima en grados centígrados (hora)
DESCASC
Temp. media en grados centígrados
DESCASC
Racha de viento máxima en m/sg (hora)
DESCASC
Velocidad máxima media en intervalos de 10 minutos(hora)
DESCASC
Precipitaciones diarias en mm
DESCASC
Precipitaciones de 00:00 a 06:00 en mm
DESCASC
Precipitaciones de 06:00 a 12:00 en mm
DESCASC
Precipitaciones de 12:00 a 18:00 en mm
DESCASC
Precipitaciones de 18:00 a 24:00 en mm
DESCASC
05-04-2020 22.2 (15:50) 10.5 (08:10) 16.4 10 (19:30) 5.28 (18:00) 0.1 0 0 0 0.1
04-04-2020 19.8 (16:10) 7.8 (06:50) 13.8 8.33 (16:40) 5.28 (14:10) 0.1 0 0 0 0.1
03-04-2020 21.6 (16:30) 5.1 (06:50) 13.4 5.28 (20:00) 3.06 (22:00) 0 0 0 0 0
02-04-2020 18.5 (18:10) 6.1 (00:00) 12.3 5.56 (17:50) 2.78 (18:30) 4.4 4 0.3 0.1 0
01-04-2020 13.9 (15:50) 2.7 (00:00) 8.3 8.33 (16:40) 4.17 (16:50) 2.7 0 0 1.2 1.5
31-03-2020 15.6 (17:40) 6.2 (00:00) 10.9 10.28 (02:20) 5.56 (01:50) 8.5 3.3 2.4 2.8 0
30-03-2020 15.9 (14:50) 5.9 (00:00) 10.9 8.61 (23:40) 5.56 (23:59) 4.5 0 0 4.3 0.2
29-03-2020 20.9 (15:10) 5.1 (00:00) 13 4.72 (18:50) 2.22 (18:30) 0 0 0 0 0
28-03-2020 19.4 (15:50) 3.8 (00:00) 11.6 7.78 (09:50) 5.28 (09:50) 0 0 0 0 0
27-03-2020 15.5 (17:30) 6.2 (00:00) 10.8 6.94 (18:50) 4.17 (00:10) 0 0 0 0 0
26-03-2020 21.1 (15:40) 8.1 (00:00) 14.6 10.28 (17:00) 6.39 (17:00) 0 0 0 0 0
25-03-2020 20.6 (16:30) 8.9 (00:00) 14.8 6.39 (02:10) 4.17 (02:10) 0 0 0 0 0
24-03-2020 18.4 (13:30) 11.4 (00:00) 14.9 12.22 (14:40) 6.67 (15:20) 0 0 0 0 0
23-03-2020 18.9 (15:50) 8.7 (00:00) 13.8 8.33 (16:50) 4.17 (16:50) 0.8 0 0 0.8 0
22-03-2020 17.9 (16:40) 5.5 (07:40) 11.7 7.5 (18:30) 4.17 (18:30) 0.2 0.1 0 0 0.1
21-03-2020 16.3 (14:40) 8.6 (00:00) 12.4 6.94 (17:10) 4.44 (17:10) 20 18.1 0.1 0 1.8
20-03-2020 15.8 (00:00) 10.6 (00:00) 13.2 6.39 (22:20) 3.33 (22:30) 26.1 0 0.2 7.4 18.5
19-03-2020 22.2 (16:00) 10.7 (00:00) 16.5 7.78 (01:10) 5.28 (10:20) 0 0 0 0 0
18-03-2020 23.9 (16:00) 12.7 (00:00) 18.3 11.39 (05:50) 6.39 (05:50) 0 0 0 0 0
17-03-2020 19.1 (16:50) 2.4 (00:00) 10.8 11.11 (15:30) 5.56 (12:00) 0.4 0 0.3 0 0.1
16-03-2020 13.7 (13:40) 3.2 (00:00) 8.4 12.5 (17:30) 6.39 (15:50) 0 0 0 0 0
15-03-2020 23.2 (14:20) 7.1 (00:00) 15.2 10.28 (16:10) 6.67 (16:20) 0 0 0 0 0
14-03-2020 23.2 (16:40) 6 (00:00) 14.6 3.89 (13:00) 1.67 (12:50) 0 0 0 0 0
13-03-2020 18.6 (17:20) 8.4 (05:50) 13.5 5 (09:30) 3.06 (17:50) 0 0 0 0 0
12-03-2020 27.9 (15:00) 10.8 (00:00) 19.3 7.78 (17:10) 5 (17:10) 0 0 0 0 0
11-03-2020 28 (15:30) 8.8 (00:00) 18.4 5.56 (16:20) 3.33 (10:10) 0 0 0 0 0
10-03-2020 26.5 (16:20) 5.1 (00:00) 15.8 4.44 (09:50) 3.33 (10:20) 0 0 0 0 0

Gráficas

Temp. máximas Temp. mínimas Temp. medias Precipitaciones Rachas de viento máximas Velocidades máximas media en intervalos de 10 minutos

Datos horarios

Fecha y hora oficial Temperatura (ºC) Velocidad del viento (km/h) Dirección del viento Racha (km/h) Dirección de racha Precipitación (mm) Presión (hPa) Tendencia (hPa) Humedad (%)
2020-04-08 23:00:00 18.3 0 Calma 5 Sudoeste 0 -- -- 84
2020-04-08 22:00:00 18.4 4 Sudoeste 8 Oeste 0 -- -- 84
2020-04-08 21:00:00 20 6 Oeste 14 Noroeste 0 -- -- 73
2020-04-08 20:00:00 21.3 3 Noroeste 7 Noroeste 0 -- -- 72
2020-04-08 19:00:00 22.4 3 Noroeste 9 Noroeste 0 -- -- 58
2020-04-08 18:00:00 23.6 4 Noroeste 9 Noroeste 0 -- -- 54
2020-04-08 17:00:00 22.8 3 Norte 12 Nordeste 0 -- -- 55
2020-04-08 16:00:00 22.5 5 Este 11 Este 0 -- -- 60
2020-04-08 15:00:00 23 2 Nordeste 13 Este 0 -- -- 63
2020-04-08 14:00:00 21 6 Este 15 Este 0 -- -- 71
2020-04-08 13:00:00 20.1 7 Este 15 Este 0 -- -- 75
2020-04-08 12:00:00 16.8 5 Este 10 Este 0 -- -- --
2020-04-08 11:00:00 14.6 3 Nordeste 9 Nordeste 0 -- -- --
2020-04-08 10:00:00 13.7 5 Este 12 Este 0 -- -- --
2020-04-08 09:00:00 12.8 8 Este 15 Este 0 -- -- --
2020-04-08 08:00:00 11.7 5 Este 10 Este 0 -- -- --
2020-04-08 07:00:00 11.6 5 Este 8 Este 0 -- -- --
2020-04-08 06:00:00 11.5 3 Nordeste 6 Este 0 -- -- --
2020-04-08 05:00:00 11.6 0 Calma 6 Sur 0 -- -- --
2020-04-08 04:00:00 12.4 2 Sudeste 4 Sudeste 0 -- -- 99
2020-04-08 03:00:00 12.3 0 Calma 9 Sudoeste 0 -- -- --
2020-04-08 02:00:00 11.4 0 Calma -- -- 0 -- -- --
2020-04-08 01:00:00 11.5 0 Calma 3 Este 0 -- -- --
2020-04-08 00:00:00 13 0 Calma 8 Sudeste 0 -- -- 99
2020-04-07 23:00:00 14.6 5 Sudeste 9 Este 0 -- -- 97
2020-04-07 22:00:00 15.4 5 Este 8 Este 0 -- -- 95
2020-04-07 21:00:00 16.6 6 Este 8 Este 0 -- -- 91
2020-04-07 20:00:00 18.7 5 Este 7 Este 0 -- -- 84
2020-04-07 19:00:00 18.8 4 Este 7 Este 0 -- -- 77
2020-04-07 18:00:00 18.9 2 Nordeste 9 Este 0.1 -- -- 80
2020-04-07 17:00:00 18.2 5 Nordeste 9 Nordeste 0 -- -- 85
2020-04-07 16:00:00 17.3 0 Calma 8 Este 0 -- -- 92
2020-04-07 15:00:00 16.9 5 Este 12 Este 0.2 -- -- 93
2020-04-07 14:00:00 16 9 Sudeste 14 Sudeste 1.8 -- -- 97
2020-04-07 13:00:00 15.4 9 Este 13 Sudeste 1 -- -- 96
2020-04-07 12:00:00 15.5 7 Sudeste 14 Sur 0 -- -- 90
2020-04-07 11:00:00 15 4 Este 13 Sudeste 0.5 -- -- 96
2020-04-07 10:00:00 15.3 7 Sudeste 13 Sudeste 0 -- -- 90
2020-04-07 09:00:00 14.7 7 Este 15 Este 0 -- -- 95
2020-04-07 08:00:00 14.4 10 Este 15 Este 0 -- -- 98
2020-04-07 07:00:00 14 7 Sudeste 14 Sur 7.5 -- -- 99
2020-04-07 06:00:00 14.8 9 Sudeste 14 Este 1.7 -- -- 96
2020-04-07 05:00:00 14.7 7 Este 15 Este 0.7 -- -- 99
2020-04-07 04:00:00 14.5 7 Este 13 Este 0 -- -- 99
2020-04-07 03:00:00 14.6 6 Este 15 Este 0 -- -- 98
2020-04-07 02:00:00 14.8 9 Este 16 Este 0 -- -- 98
2020-04-07 01:00:00 15 10 Este 16 Este 0.6 -- -- 97
2020-04-07 00:00:00 15.6 6 Este 15 Este 0.6 -- -- 97
2020-04-06 23:00:00 15.6 5 Nordeste 15 Norte 0.4 -- -- 96
2020-04-06 22:00:00 15.7 7 Norte 15 Norte 0.8 -- -- 97
2020-04-06 21:00:00 16.4 0 Calma 10 Este 0 -- -- 93
2020-04-06 20:00:00 17 4 Norte 14 Norte 0 -- -- 85
2020-04-06 19:00:00 19.3 3 Noroeste 13 Oeste 0 -- -- 71
2020-04-06 18:00:00 19.7 4 Sudoeste 14 Sudoeste 0 -- -- 64
2020-04-06 17:00:00 21.4 3 Noroeste 16 Oeste 0 -- -- 56
2020-04-06 16:00:00 21.2 4 Sudoeste 14 Sur 0 -- -- 60
2020-04-06 15:00:00 20.4 5 Oeste 12 Oeste 0 -- -- 62
2020-04-06 14:00:00 19.4 5 Oeste 14 Oeste 0 -- -- 66
2020-04-06 13:00:00 18.7 4 Oeste 13 Sudoeste 0 -- -- 73
2020-04-06 12:00:00 17.6 0 Calma 12 Sudeste 0 -- -- 77
2020-04-06 11:00:00 16.1 5 Este 10 Este 0 -- -- 90
2020-04-06 10:00:00 14.5 3 Este 6 Sudeste 0 -- -- 94
2020-04-06 09:00:00 13.4 3 Este 5 Este 0 -- -- 99
2020-04-06 08:00:00 12.1 0 Calma 4 Oeste 0 -- -- --
2020-04-06 07:00:00 12.3 0 Calma 7 Oeste 0 -- -- --
2020-04-06 06:00:00 13.3 2 Oeste 12 Oeste 0 -- -- 99
2020-04-06 05:00:00 13.6 5 Sudoeste 11 Sudoeste 0 -- -- 99
2020-04-06 04:00:00 14.2 3 Sudoeste 12 Sudoeste 0 -- -- 98
2020-04-06 03:00:00 15 5 Sudoeste 14 Sudoeste 0 -- -- 97
2020-04-06 02:00:00 15.3 6 Sudoeste 27 Sur 0.9 -- -- 95
2020-04-06 01:00:00 15.8 15 Sur 28 Sur 0.2 -- -- 89
2020-04-06 00:00:00 16.2 10 Sur 23 Sur 0 -- -- 86
2020-04-05 23:00:00 16.9 13 Sur 23 Sudeste 0.1 -- -- 78
2020-04-05 22:00:00 16.9 14 Sur 29 Sur 0 -- -- 78
2020-04-05 21:00:00 18.1 10 Sur 24 Sudeste 0 -- -- 70
2020-04-05 20:00:00 18.7 13 Sur 36 Sudoeste 0 -- -- 68
2020-04-05 19:00:00 19.2 16 Sur 30 Sur 0 -- -- 62
2020-04-05 18:00:00 19.7 19 Sur 33 Sur 0 -- -- 59
2020-04-05 17:00:00 20.3 17 Sur 33 Sur 0 -- -- 56
2020-04-05 16:00:00 21.1 17 Sur 29 Sur 0 -- -- 56
2020-04-05 15:00:00 21 16 Sur 32 Sur 0 -- -- 57
2020-04-05 14:00:00 20.9 17 Sur 28 Sur 0 -- -- 54
2020-04-05 13:00:00 18.8 10 Sudeste 25 Este 0 -- -- 59
2020-04-05 12:00:00 17.1 13 Sudeste 28 Sudeste 0 -- -- 62
2020-04-05 11:00:00 17 17 Este 27 Este 0 -- -- 58
2020-04-05 10:00:00 13.7 10 Este 19 Este 0 -- -- 72
2020-04-05 09:00:00 11.4 10 Este 15 Sudeste 0 -- -- 80
2020-04-05 08:00:00 10.7 8 Este 17 Este 0 -- -- 81
2020-04-05 07:00:00 11.2 6 Este 8 Este 0 -- -- 82
2020-04-05 06:00:00 10.9 2 Este 12 Este 0 -- -- 80
2020-04-05 05:00:00 11.9 9 Este 14 Este 0 -- -- 76
2020-04-05 04:00:00 12.2 4 Este 11 Este 0 -- -- 79
2020-04-05 03:00:00 13 4 Este 7 Este 0 -- -- 82
2020-04-05 02:00:00 13.8 3 Este 14 Sudeste 0 -- -- 76
2020-04-05 01:00:00 13.6 9 Sudeste 17 Este 0 -- -- 77
2020-04-05 00:00:00 14.4 8 Este 13 Sudeste 0 -- -- 72
2020-04-04 23:00:00 14.9 7 Este 12 Este 0 -- -- 70
2020-04-04 22:00:00 14.7 4 Este 9 Este 0 -- -- 73
2020-04-04 21:00:00 15.4 5 Este 16 Sudeste 0 -- -- 67
2020-04-04 20:00:00 16.4 7 Sudeste 18 Sudeste 0.1 -- -- 62
2020-04-04 19:00:00 17.3 10 Sudeste 22 Sudeste 0 -- -- 52
2020-04-04 18:00:00 17.7 14 Sudeste 26 Sudeste 0 -- -- 48
2020-04-04 17:00:00 18.7 16 Sudeste 30 Sur 0 -- -- 44
2020-04-04 16:00:00 19.4 15 Sudeste 28 Sudeste 0 -- -- 42
2020-04-04 15:00:00 19.2 17 Sudeste 28 Este 0 -- -- 41
2020-04-04 14:00:00 17.8 18 Este 28 Este 0 -- -- 45
2020-04-04 13:00:00 16.9 12 Sudeste 23 Sudeste 0 -- -- 54
2020-04-04 12:00:00 15.9 14 Este 19 Este 0 -- -- 66
2020-04-04 11:00:00 14.7 8 Nordeste 18 Este 0 -- -- 67
2020-04-04 10:00:00 12.8 9 Nordeste 18 Nordeste 0 -- -- 73
2020-04-04 09:00:00 10.7 7 Este 13 Este 0 -- -- 82
2020-04-04 08:00:00 9.2 6 Nordeste 13 Este 0 -- -- 87
2020-04-04 07:00:00 8.7 5 Este 7 Este 0 -- -- 91
2020-04-04 06:00:00 8.9 4 Este 9 Este 0 -- -- 91
2020-04-04 05:00:00 9.2 8 Este 10 Este 0 -- -- 89
2020-04-04 04:00:00 9.5 5 Este 9 Este 0 -- -- 90
2020-04-04 03:00:00 10.4 7 Este 9 Este 0 -- -- 84
2020-04-04 02:00:00 11.5 8 Este 11 Este 0 -- -- 79
2020-04-04 01:00:00 12.1 8 Este 10 Este 0 -- -- 76
2020-04-04 00:00:00 12.9 9 Este 15 Este 0 -- -- 68
2020-04-03 23:00:00 14 8 Este 17 Nordeste 0 -- -- 62
2020-04-03 22:00:00 16.8 11 Nordeste 19 Nordeste 0 -- -- 53
2020-04-03 21:00:00 18.4 9 Nordeste 17 Nordeste 0 -- -- 51
2020-04-03 20:00:00 19.5 9 Nordeste 19 Nordeste 0 -- -- 45
2020-04-03 19:00:00 20.3 5 Nordeste 16 Este 0 -- -- 42
2020-04-03 18:00:00 21.3 3 Sudeste 15 Este 0 -- -- 44
2020-04-03 17:00:00 21.2 7 Este 18 Este 0 -- -- 46
2020-04-03 16:00:00 20.5 5 Sudeste 14 Este 0 -- -- 47
2020-04-03 15:00:00 19.6 3 Sur 17 Este 0 -- -- 49
2020-04-03 14:00:00 18.4 7 Sudeste 15 Este 0 -- -- 60
2020-04-03 13:00:00 17.3 4 Sudeste 15 Este 0 -- -- 63
2020-04-03 12:00:00 15.1 5 Este 12 Sudeste 0 -- -- 68
2020-04-03 11:00:00 13 6 Este 15 Este 0 -- -- 81
2020-04-03 10:00:00 10.8 6 Este 11 Este 0 -- -- 89
2020-04-03 09:00:00 8.4 4 Este 9 Nordeste 0 -- -- 96
2020-04-03 08:00:00 6.1 3 Este 8 Este 0 -- -- 99
2020-04-03 07:00:00 5.8 0 Calma 5 Sudeste 0 -- -- 99
2020-04-03 06:00:00 5.9 2 Sudeste 3 Este 0 -- -- 99
2020-04-03 05:00:00 6 0 Calma 14 Sudoeste 0 -- -- 98
2020-04-03 04:00:00 9.1 7 Sudoeste 13 Sudoeste 0 -- -- 97
2020-04-03 03:00:00 9.8 6 Sudoeste 13 Sudoeste 0 -- -- 93
2020-04-03 02:00:00 10.2 5 Sudoeste 12 Oeste 0 -- -- 89
2020-04-03 01:00:00 9.8 5 Sudoeste 11 Oeste 0 -- -- 91
2020-04-03 00:00:00 11.3 6 Sudoeste 15 Sudoeste 0 -- -- 80
2020-04-02 23:00:00 10.1 4 Sudoeste 9 Sudoeste 0 -- -- 83
2020-04-02 22:00:00 10.7 2 Sur 9 Oeste 0 -- -- 81
2020-04-02 21:00:00 14 5 Noroeste 14 Oeste 0 -- -- 63
2020-04-02 20:00:00 17.2 5 Oeste 19 Oeste 0 -- -- 46
2020-04-02 19:00:00 17.7 9 Oeste 19 Oeste 0 -- -- 49
2020-04-02 18:00:00 18 9 Oeste 20 Oeste 0 -- -- 46
2020-04-02 17:00:00 17.1 4 Sudoeste 17 Noroeste 0 -- -- 51
2020-04-02 16:00:00 17.5 3 Norte 13 Oeste 0 -- -- 51
2020-04-02 15:00:00 15.8 3 Sudeste 12 Sudeste 0 -- -- 57
2020-04-02 14:00:00 13.9 3 Noroeste 13 Nordeste 0.1 -- -- 64
2020-04-02 13:00:00 12.9 2 Este 13 Nordeste 0 -- -- 70
2020-04-02 12:00:00 11.4 4 Nordeste 11 Este 0 -- -- 79
2020-04-02 11:00:00 9.5 4 Norte 12 Norte 0.2 -- -- 93
2020-04-02 10:00:00 8.7 3 Noroeste 11 Norte 0 -- -- 93
2020-04-02 09:00:00 8 4 Norte 11 Norte 0 -- -- 95
2020-04-02 08:00:00 7.3 3 Nordeste 9 Norte 0 -- -- 95
2020-04-02 07:00:00 7.6 3 Norte 15 Nordeste 0.1 -- -- 96
2020-04-02 06:00:00 8.1 4 Norte 12 Nordeste 0 -- -- 97
2020-04-02 05:00:00 7.7 5 Norte 13 Nordeste 0 -- -- 94
2020-04-02 04:00:00 7.8 4 Noroeste 13 Norte 3.3 -- -- 95
2020-04-02 03:00:00 9.8 2 Norte 12 Este 0.7 -- -- 97
2020-04-02 02:00:00 10 6 Este 15 Este 0 -- -- 92
2020-04-02 01:00:00 10.1 4 Este 10 Nordeste 0 -- -- 93
2020-04-02 00:00:00 9.8 3 Norte 8 Noroeste 1.3 -- -- 98
2020-04-01 23:00:00 10.5 5 Sudeste 12 Este 0.2 -- -- 86
2020-04-01 22:00:00 11.3 8 Este 15 Este 0 -- -- 77
2020-04-01 21:00:00 11.3 8 Este 16 Sudeste 0 -- -- 80
2020-04-01 20:00:00 12.1 9 Este 18 Este 0 -- -- 77
2020-04-01 19:00:00 13 11 Este 18 Este 0 -- -- 69
2020-04-01 18:00:00 12.5 6 Este 15 Este 0.1 -- -- 71
2020-04-01 17:00:00 10.9 4 Sur 30 Sudoeste 0.1 -- -- 85
2020-04-01 16:00:00 13.1 4 Este 11 Sudeste 0 -- -- 66
2020-04-01 15:00:00 11.8 0 Calma 12 Sur 0.6 -- -- 69
2020-04-01 14:00:00 9.7 10 Sur 19 Sur 0.4 -- -- 83
2020-04-01 13:00:00 11.9 4 Este 14 Este 0 -- -- 62
2020-04-01 12:00:00 11.3 5 Sudeste 13 Sudeste 0 -- -- 62
2020-04-01 11:00:00 10.3 8 Sudeste 13 Sudeste 0 -- -- 66
2020-04-01 10:00:00 9 5 Sudeste 11 Este 0 -- -- 84
2020-04-01 09:00:00 6.1 0 Calma 3 Este 0 -- -- 97
2020-04-01 08:00:00 3.5 0 Calma 5 Sur 0 -- -- 98
2020-04-01 07:00:00 5.9 7 Este 10 Este 0 -- -- 91
2020-04-01 06:00:00 6.1 0 Calma 6 Sur 0 -- -- 96
2020-04-01 05:00:00 5.1 3 Sur 5 Sur 0 -- -- 95
2020-04-01 04:00:00 6.1 0 Calma 7 Sudoeste 0 -- -- 92
2020-04-01 03:00:00 6 3 Sudoeste 8 Sudoeste 0 -- -- 97
2020-04-01 02:00:00 6 0 Calma 5 Sur 0 -- -- 98
2020-04-01 01:00:00 5.9 2 Sudeste 5 Sudoeste 0 -- -- 98
2020-04-01 00:00:00 6.2 3 Oeste 13 Oeste 0 -- -- 96
2020-03-31 23:00:00 7.4 5 Oeste 15 Oeste 0 -- -- 93
2020-03-31 22:00:00 9.7 5 Oeste 29 Oeste 0 -- -- 86
2020-03-31 21:00:00 11.6 16 Oeste 33 Oeste 0 -- -- 78
2020-03-31 20:00:00 13 10 Oeste 28 Oeste 0 -- -- 78
2020-03-31 19:00:00 13.8 12 Sudoeste 28 Sudoeste 0 -- -- 74
2020-03-31 18:00:00 14.3 12 Oeste 24 Oeste 0.1 -- -- 72
2020-03-31 17:00:00 14.6 8 Oeste 20 Oeste 0 -- -- 77
2020-03-31 16:00:00 14.4 3 Oeste 11 Oeste 0 -- -- 85
2020-03-31 15:00:00 13.7 4 Norte 12 Oeste 2.6 -- -- 93
2020-03-31 14:00:00 13.3 5 Este 17 Este 0.1 -- -- 80
2020-03-31 13:00:00 12.1 9 Este 21 Este 0 -- -- 89
2020-03-31 12:00:00 11 13 Este 22 Este 0 -- -- 88
2020-03-31 11:00:00 9.6 15 Este 22 Este 0 -- -- 93
2020-03-31 10:00:00 8.4 8 Este 23 Este 0.1 -- -- 96
2020-03-31 09:00:00 7.4 11 Este 24 Nordeste 0.7 -- -- 97
2020-03-31 08:00:00 6.9 15 Nordeste 30 Nordeste 1.1 -- -- 96
2020-03-31 07:00:00 6.3 16 Nordeste 30 Nordeste 0.5 -- -- 96
2020-03-31 06:00:00 6.6 15 Nordeste 27 Este 1.8 -- -- 97
2020-03-31 05:00:00 6.5 14 Nordeste 32 Este 1.4 -- -- 96
2020-03-31 04:00:00 7.3 16 Nordeste 31 Este 0.1 -- -- 88
2020-03-31 03:00:00 7.9 15 Nordeste 37 Nordeste 0 -- -- 82
2020-03-31 02:00:00 8.1 17 Nordeste 36 Nordeste 0 -- -- 82
2020-03-31 01:00:00 8.4 17 Nordeste 32 Nordeste 0 -- -- 85
2020-03-31 00:00:00 8.7 20 Nordeste 31 Nordeste 0 -- -- 87
2020-03-30 23:00:00 9.4 17 Nordeste 27 Nordeste 0 -- -- 90
2020-03-30 22:00:00 10 13 Nordeste 22 Nordeste 0 -- -- 94
2020-03-30 21:00:00 11.1 10 Este 21 Este 0 -- -- 92
2020-03-30 20:00:00 11.3 12 Este 21 Este 0 -- -- 92
2020-03-30 19:00:00 11.7 6 Nordeste 12 Nordeste 0.2 -- -- 93
2020-03-30 18:00:00 11.7 5 Norte 19 Norte 1.5 -- -- 95
2020-03-30 17:00:00 11.8 10 Noroeste 18 Noroeste 2.1 -- -- 97
2020-03-30 16:00:00 13.2 4 Norte 14 Norte 0.6 -- -- 90
2020-03-30 15:00:00 15.7 3 Norte 9 Norte 0 -- -- 65
2020-03-30 14:00:00 15.3 3 Norte 9 Nordeste 0 -- -- 69
2020-03-30 13:00:00 12.7 5 Nordeste 10 Nordeste 0.1 -- -- 83
2020-03-30 12:00:00 12 5 Oeste 9 Sudoeste 0 -- -- 82
2020-03-30 11:00:00 11.3 0 Calma 4 Sur 0 -- -- 82
2020-03-30 10:00:00 10.2 0 Calma 7 Norte 0 -- -- 87
2020-03-30 09:00:00 9.2 3 Noroeste 8 Noroeste 0 -- -- 91
2020-03-30 08:00:00 7.7 0 Calma 8 Sudoeste 0 -- -- 97
2020-03-30 07:00:00 6.5 0 Calma 6 Sudeste 0 -- -- 96
2020-03-30 06:00:00 6.5 3 Sur 5 Sur 0 -- -- 95
2020-03-30 05:00:00 8.2 0 Calma 6 Noroeste 0 -- -- 93
2020-03-30 04:00:00 11.1 5 Oeste 10 Oeste 0 -- -- 84
2020-03-30 03:00:00 9.6 0 Calma 6 Sudoeste 0 -- -- 93
2020-03-30 02:00:00 11.2 3 Sur 10 Sudeste 0 -- -- 79
2020-03-30 01:00:00 11.2 3 Sudeste 8 Sudeste 0 -- -- 82
2020-03-30 00:00:00 13.7 3 Sudoeste 10 Sudoeste 0 -- -- 73
2020-03-29 23:00:00 14.6 5 Sudoeste 8 Sudoeste 0 -- -- 70
2020-03-29 22:00:00 15.4 5 Sudoeste 13 Sudoeste 0 -- -- 67
2020-03-29 21:00:00 13.9 3 Sudoeste 5 Oeste 0 -- -- 68
2020-03-29 20:00:00 17.3 2 Oeste 14 Oeste 0 -- -- 57
2020-03-29 19:00:00 18.4 6 Noroeste 17 Norte 0 -- -- 47
2020-03-29 18:00:00 19.5 6 Noroeste 14 Noroeste 0 -- -- 43
2020-03-29 17:00:00 19.7 5 Oeste 12 Noroeste 0 -- -- 39
2020-03-29 16:00:00 20.7 5 Oeste 17 Oeste 0 -- -- 37
2020-03-29 15:00:00 19.8 3 Norte 10 Oeste 0 -- -- 46
2020-03-29 14:00:00 17.7 4 Oeste 9 Noroeste 0 -- -- 52
2020-03-29 13:00:00 16.8 2 Noroeste 6 Nordeste 0 -- -- 56
2020-03-29 12:00:00 15.5 0 Calma 8 Nordeste 0 -- -- 59
2020-03-29 11:00:00 13.2 5 Este 10 Este 0 -- -- 66
2020-03-29 10:00:00 10.6 6 Este 9 Este 0 -- -- 76
2020-03-29 09:00:00 7.5 5 Este 9 Este 0 -- -- 87
2020-03-29 08:00:00 5.6 3 Sudeste 6 Este 0 -- -- 94
2020-03-29 07:00:00 6 0 Calma 11 Este 0 -- -- 89
2020-03-29 06:00:00 6.2 3 Este 8 Este 0 -- -- 90
2020-03-29 05:00:00 5.2 0 Calma 5 Este 0 -- -- 92
2020-03-29 03:00:00 8.4 2 Nordeste 6 Este 0 -- -- 77
2020-03-29 01:00:00 9.9 4 Nordeste 6 Este 0 -- -- 69
2020-03-29 00:00:00 6.2 4 Este 6 Este 0 -- -- 87
2020-03-28 23:00:00 9.5 4 Este 6 Este 0 -- -- 67
2020-03-28 22:00:00 11 4 Este 8 Este 0 -- -- 61
2020-03-28 21:00:00 14.8 6 Nordeste 11 Nordeste 0 -- -- 42
2020-03-28 20:00:00 15.4 4 Nordeste 10 Nordeste 0 -- -- 47
2020-03-28 19:00:00 17.3 5 Nordeste 15 Nordeste 0 -- -- 39
2020-03-28 18:00:00 18 4 Nordeste 17 Nordeste 0 -- -- 40
2020-03-28 17:00:00 18.2 8 Nordeste 19 Nordeste 0 -- -- 41
2020-03-28 16:00:00 19.1 8 Nordeste 19 Este 0 -- -- 41
2020-03-28 15:00:00 17.4 8 Nordeste 19 Nordeste 0 -- -- 45
2020-03-28 14:00:00 16.9 9 Nordeste 26 Nordeste 0 -- -- 46
2020-03-28 13:00:00 15.5 13 Este 25 Este 0 -- -- 55
2020-03-28 12:00:00 13 11 Nordeste 26 Este 0 -- -- 57
2020-03-28 11:00:00 11.6 10 Nordeste 27 Este 0 -- -- 62
2020-03-28 10:00:00 9.2 18 Este 28 Este 0 -- -- 73
2020-03-28 09:00:00 6.5 16 Este 24 Este 0 -- -- 80
2020-03-28 08:00:00 5.5 8 Este 17 Este 0 -- -- 84
2020-03-28 07:00:00 5 8 Nordeste 15 Nordeste 0 -- -- 85
2020-03-28 06:00:00 4.5 6 Este 12 Nordeste 0 -- -- 89
2020-03-28 05:00:00 5.5 5 Nordeste 14 Norte 0 -- -- 84
2020-03-28 04:00:00 6 5 Nordeste 13 Este 0 -- -- 81
2020-03-28 03:00:00 6.1 5 Nordeste 11 Este 0 -- -- 81
2020-03-28 02:00:00 5.6 5 Este 13 Este 0 -- -- 84
2020-03-28 01:00:00 7.2 6 Este 16 Nordeste 0 -- -- 76
2020-03-28 00:00:00 8.7 9 Nordeste 19 Nordeste 0 -- -- 68
2020-03-27 23:00:00 8.2 6 Este 13 Este 0 -- -- 72
2020-03-27 22:00:00 8.9 7 Este 15 Este 0 -- -- 73
2020-03-27 21:00:00 11.2 6 Este 17 Este 0 -- -- 60
2020-03-27 20:00:00 13 4 Nordeste 22 Nordeste 0 -- -- 53
2020-03-27 19:00:00 13.8 13 Nordeste 25 Nordeste 0 -- -- 48
2020-03-27 18:00:00 13.8 13 Este 19 Este 0 -- -- 55
2020-03-27 17:00:00 15 11 Este 23 Este 0 -- -- 59
2020-03-27 16:00:00 14.5 10 Este 19 Este 0 -- -- 62
2020-03-27 15:00:00 13.4 9 Este 19 Nordeste 0 -- -- 64
2020-03-27 14:00:00 12.3 6 Nordeste 14 Nordeste 0 -- -- 68
2020-03-27 13:00:00 11.2 5 Nordeste 11 Nordeste 0 -- -- 71
2020-03-27 12:00:00 9.5 4 Norte 8 Norte 0 -- -- 80
2020-03-27 11:00:00 8.4 2 Sur 10 Nordeste 0 -- -- 82
2020-03-27 10:00:00 8.3 4 Sudoeste 9 Sudoeste 0 -- -- 84
2020-03-27 09:00:00 8 4 Oeste 13 Oeste 0 -- -- 82
2020-03-27 08:00:00 7.6 5 Oeste 18 Oeste 0 -- -- 89
2020-03-27 07:00:00 7.2 12 Oeste 20 Oeste 0 -- -- 92
2020-03-27 06:00:00 7.3 14 Oeste 24 Oeste 0 -- -- 92
2020-03-27 05:00:00 7.7 13 Oeste 22 Oeste 0 -- -- 91
2020-03-27 04:00:00 7.9 6 Sudoeste 18 Sudoeste 0 -- -- 92
2020-03-27 03:00:00 6.7 5 Oeste 13 Sudoeste 0 -- -- 95
2020-03-27 02:00:00 7.6 5 Sudoeste 13 Oeste 0 -- -- 93
2020-03-27 01:00:00 8.3 5 Sudoeste 23 Sudoeste 0 -- -- 92
2020-03-27 00:00:00 10.2 14 Oeste 26 Sudoeste 0 -- -- 81
2020-03-26 23:00:00 11.3 15 Oeste 26 Oeste 0 -- -- 78
2020-03-26 22:00:00 12.2 9 Sudoeste 22 Oeste 0 -- -- 72
2020-03-26 21:00:00 13.7 13 Oeste 30 Oeste 0 -- -- 63
2020-03-26 20:00:00 15.4 16 Oeste 32 Sudoeste 0 -- -- 59
2020-03-26 19:00:00 17.5 18 Oeste 37 Oeste 0 -- -- 49
2020-03-26 18:00:00 19.1 21 Oeste 37 Oeste 0 -- -- 45
2020-03-26 17:00:00 19.9 23 Oeste 37 Oeste 0 -- -- 45
2020-03-26 16:00:00 20.8 14 Oeste 30 Oeste 0 -- -- 47
2020-03-26 15:00:00 20.2 17 Oeste 31 Oeste 0 -- -- 44
2020-03-26 14:00:00 19.9 15 Oeste 31 Sudoeste 0 -- -- 46
2020-03-26 13:00:00 18.3 18 Sudoeste 31 Sudoeste 0 -- -- 55
2020-03-26 12:00:00 16.5 13 Oeste 24 Oeste 0 -- -- 64
2020-03-26 11:00:00 13.9 11 Oeste 22 Oeste 0 -- -- 73
2020-03-26 10:00:00 10.8 14 Oeste 24 Oeste 0 -- -- 84
2020-03-26 09:00:00 9.1 13 Oeste 27 Sudoeste 0 -- -- 93
2020-03-26 08:00:00 8.6 8 Oeste 17 Sudoeste 0 -- -- 97
2020-03-26 07:00:00 8.3 7 Oeste 22 Oeste 0 -- -- 97
2020-03-26 06:00:00 9.1 9 Oeste 22 Oeste 0 -- -- 95
2020-03-26 05:00:00 10.1 9 Oeste 18 Sudoeste 0 -- -- 94
2020-03-26 04:00:00 11.1 13 Oeste 24 Sudoeste 0 -- -- 90
2020-03-26 03:00:00 12.4 10 Sudoeste 20 Sudoeste 0 -- -- 88
2020-03-26 02:00:00 13.2 6 Sudoeste 17 Sudoeste 0 -- -- 88
2020-03-26 01:00:00 13.1 9 Sudoeste 21 Sudoeste 0 -- -- 90
2020-03-26 00:00:00 13.4 9 Sudoeste 21 Sudoeste 0 -- -- 86
2020-03-25 23:00:00 13 5 Sudoeste 12 Sudoeste 0 -- -- 79
2020-03-25 22:00:00 11.8 4 Sudoeste 13 Sudoeste 0 -- -- 83
2020-03-25 21:00:00 13.8 6 Sudoeste 12 Sudoeste 0 -- -- 73
2020-03-25 20:00:00 14 5 Sudoeste 14 Oeste 0 -- -- 71
2020-03-25 19:00:00 18.8 8 Oeste 18 Noroeste 0 -- -- 49
2020-03-25 18:00:00 19.8 8 Oeste 19 Oeste 0 -- -- 45
2020-03-25 17:00:00 20.2 5 Noroeste 16 Oeste 0 -- -- 45
2020-03-25 16:00:00 20.1 5 Noroeste 16 Norte 0 -- -- 42
2020-03-25 15:00:00 19.8 5 Oeste 14 Sudeste 0 -- -- 43
2020-03-25 14:00:00 18.5 4 Oeste 13 Sudoeste 0 -- -- 44
2020-03-25 13:00:00 18.4 3 Norte 8 Oeste 0 -- -- 49
2020-03-25 12:00:00 16 2 Nordeste 10 Este 0 -- -- 54
2020-03-25 11:00:00 15.1 3 Nordeste 13 Este 0 -- -- 56
2020-03-25 10:00:00 12.6 8 Nordeste 18 Este 0 -- -- 63
2020-03-25 09:00:00 10.8 8 Este 13 Este 0 -- -- 75
2020-03-25 08:00:00 10.1 7 Este 19 Este 0 -- -- 79
2020-03-25 07:00:00 9.9 11 Este 16 Este 0 -- -- 83
2020-03-25 06:00:00 10.2 8 Este 18 Este 0 -- -- 80
2020-03-25 05:00:00 10.5 9 Nordeste 15 Nordeste 0 -- -- 78
2020-03-25 04:00:00 9.1 7 Este 15 Este 0 -- -- 85
2020-03-25 03:00:00 11 9 Nordeste 23 Nordeste 0 -- -- 74
2020-03-25 02:00:00 11.3 13 Nordeste 23 Este 0 -- -- 72
2020-03-25 01:00:00 11.9 13 Nordeste 22 Nordeste 0 -- -- 69
2020-03-25 00:00:00 12.5 10 Nordeste 26 Este 0 -- -- 67
2020-03-24 23:00:00 13.5 17 Este 30 Este 0 -- -- 64
2020-03-24 22:00:00 13.5 11 Este 22 Este 0 -- -- 67
2020-03-24 21:00:00 15.4 14 Nordeste 32 Nordeste 0 -- -- 57
2020-03-24 20:00:00 16 17 Nordeste 30 Nordeste 0 -- -- 56
2020-03-24 19:00:00 16.8 18 Nordeste 32 Nordeste 0 -- -- 53
2020-03-24 18:00:00 17.4 17 Nordeste 35 Este 0 -- -- 51
2020-03-24 17:00:00 17.5 18 Nordeste 36 Nordeste 0 -- -- 51
2020-03-24 16:00:00 17.8 21 Nordeste 42 Nordeste 0 -- -- 50
2020-03-24 15:00:00 17.7 18 Nordeste 44 Nordeste 0 -- -- 52
2020-03-24 14:00:00 17.6 22 Nordeste 41 Nordeste 0 -- -- 49
2020-03-24 13:00:00 17.4 24 Nordeste 41 Nordeste 0 -- -- 50
2020-03-24 12:00:00 17.2 23 Nordeste 38 Nordeste 0 -- -- 54
2020-03-24 11:00:00 16.6 20 Nordeste 39 Nordeste 0 -- -- 56
2020-03-24 10:00:00 15.6 20 Nordeste 37 Nordeste 0 -- -- 61
2020-03-24 09:00:00 14.3 16 Nordeste 31 Nordeste 0 -- -- 65
2020-03-24 08:00:00 12.5 8 Nordeste 16 Nordeste 0 -- -- 73
2020-03-24 07:00:00 11.8 9 Nordeste 17 Nordeste 0 -- -- 77
2020-03-24 06:00:00 12.5 10 Nordeste 18 Nordeste 0 -- -- 76
2020-03-24 05:00:00 12.6 10 Nordeste 17 Nordeste 0 -- -- 77
2020-03-24 04:00:00 12.2 5 Nordeste 15 Nordeste 0 -- -- 80
2020-03-24 03:00:00 12.1 8 Nordeste 13 Nordeste 0 -- -- 80
2020-03-24 02:00:00 11.6 5 Este 12 Nordeste 0 -- -- 84
2020-03-24 01:00:00 11.8 4 Nordeste 13 Nordeste 0 -- -- 82
2020-03-24 00:00:00 11.4 6 Este 13 Este 0 -- -- 85
2020-03-23 23:00:00 11 7 Sudeste 21 Este 0 -- -- 87
2020-03-23 22:00:00 13.3 10 Nordeste 23 Este 0 -- -- 68
2020-03-23 21:00:00 11.7 0 Calma 12 Nordeste 0 -- -- 75
2020-03-23 20:00:00 13.9 7 Nordeste 21 Este 0 -- -- 67
2020-03-23 19:00:00 16.1 8 Nordeste 20 Este 0 -- -- 54
2020-03-23 18:00:00 16 7 Nordeste 28 Nordeste 0.8 -- -- 65
2020-03-23 17:00:00 15.5 15 Este 30 Este 0 -- -- 65
2020-03-23 16:00:00 18.3 13 Nordeste 26 Nordeste 0 -- -- 45
2020-03-23 15:00:00 16.8 12 Nordeste 20 Nordeste 0 -- -- 50
2020-03-23 14:00:00 16.8 10 Nordeste 24 Este 0 -- -- 52
2020-03-23 13:00:00 16.4 12 Nordeste 24 Nordeste 0 -- -- 56
2020-03-23 12:00:00 15.3 10 Este 22 Este 0 -- -- 63
2020-03-23 11:00:00 13.9 12 Nordeste 24 Este 0 -- -- 68
2020-03-23 10:00:00 13 8 Nordeste 17 Este 0 -- -- 78
2020-03-23 09:00:00 11.7 6 Este 13 Este 0 -- -- 83
2020-03-23 08:00:00 10.4 4 Nordeste 10 Nordeste 0 -- -- 88
2020-03-23 07:00:00 9.3 4 Nordeste 9 Nordeste 0 -- -- 96
2020-03-23 06:00:00 9.9 5 Nordeste 12 Nordeste 0 -- -- 94
2020-03-23 05:00:00 10.1 4 Nordeste 8 Nordeste 0 -- -- 94
2020-03-23 04:00:00 10.7 4 Nordeste 12 Este 0 -- -- 93
2020-03-23 03:00:00 11.3 4 Nordeste 8 Nordeste 0 -- -- 93
2020-03-23 02:00:00 11 0 Calma 3 Este 0 -- -- 93
2020-03-23 01:00:00 11.7 2 Este 6 Este 0 -- -- 91
2020-03-23 00:00:00 11.5 3 Este 10 Este 0 -- -- 90
2020-03-22 23:00:00 12 7 Este 11 Este 0 -- -- 87
2020-03-22 22:00:00 12 3 Sudeste 10 Nordeste 0 -- -- 87
2020-03-22 21:00:00 12.7 3 Nordeste 8 Nordeste 0 -- -- 82
2020-03-22 20:00:00 11.9 0 Calma 14 Noroeste 0.1 -- -- 87
2020-03-22 19:00:00 12.8 9 Este 27 Nordeste 0 -- -- 76
2020-03-22 18:00:00 16.8 5 Noroeste 15 Noroeste 0 -- -- 46
2020-03-22 17:00:00 17.3 6 Noroeste 15 Noroeste 0 -- -- 49
2020-03-22 16:00:00 17.5 3 Nordeste 12 Este 0 -- -- 41
2020-03-22 15:00:00 15.8 0 Calma 10 Nordeste 0 -- -- 48
2020-03-22 14:00:00 14.9 5 Nordeste 18 Este 0 -- -- 51
2020-03-22 13:00:00 15.6 4 Norte 16 Nordeste 0 -- -- 55
2020-03-22 12:00:00 13.8 5 Este 13 Este 0 -- -- 65
2020-03-22 11:00:00 12.8 6 Nordeste 17 Nordeste 0 -- -- 71
2020-03-22 10:00:00 11.3 6 Nordeste 13 Nordeste 0 -- -- 79
2020-03-22 09:00:00 9.2 7 Nordeste 14 Este 0 -- -- 85
2020-03-22 08:00:00 7.5 3 Norte 6 Norte 0 -- -- 99
2020-03-22 07:00:00 6.1 0 Calma 11 Nordeste 0 -- -- 97
2020-03-22 06:00:00 8.2 5 Nordeste 14 Nordeste 0.1 -- -- 94
2020-03-22 05:00:00 8.7 6 Nordeste 13 Nordeste 0 -- -- 93
2020-03-22 04:00:00 8.9 5 Nordeste 9 Nordeste 0 -- -- 92
2020-03-22 03:00:00 8.8 4 Nordeste 9 Nordeste 0 -- -- 93
2020-03-22 02:00:00 8.9 5 Nordeste 12 Nordeste 0 -- -- 92
2020-03-22 01:00:00 9.5 6 Nordeste 10 Nordeste 0 -- -- 91
2020-03-22 00:00:00 8.7 2 Nordeste 5 Sur 0 -- -- 98
2020-03-21 23:00:00 9 3 Sur 9 Sur 1 -- -- 97
2020-03-21 22:00:00 10.1 5 Este 9 Sudeste 0.1 -- -- 93
2020-03-21 21:00:00 10 4 Este 9 Sudeste 0.2 -- -- 90
2020-03-21 20:00:00 10 6 Sudeste 13 Sudeste 0.4 -- -- 87
2020-03-21 19:00:00 11.2 8 Sudeste 19 Sudeste 0.1 -- -- 74
2020-03-21 18:00:00 12.8 9 Sur 25 Sur 0 -- -- 69
2020-03-21 17:00:00 13.8 14 Sur 24 Sur 0 -- -- 66
2020-03-21 16:00:00 12.8 8 Oeste 21 Sudoeste 0 -- -- 78
2020-03-21 15:00:00 14.5 11 Este 21 Este 0 -- -- 56
2020-03-21 14:00:00 13.8 6 Este 17 Sudeste 0 -- -- 61
2020-03-21 13:00:00 13.4 5 Sudeste 19 Sudeste 0 -- -- 61
2020-03-21 12:00:00 12.6 6 Sudeste 16 Sur 0 -- -- 64
2020-03-21 11:00:00 12.5 4 Sudeste 17 Sudeste 0 -- -- 69
2020-03-21 10:00:00 12.3 9 Sudeste 16 Sudeste 0 -- -- 76
2020-03-21 09:00:00 9.8 3 Sudoeste 8 Sudoeste 0 -- -- 91
2020-03-21 08:00:00 8.7 0 Calma 17 Sudoeste 0 -- -- 96
2020-03-21 07:00:00 9.1 6 Sudoeste 21 Sudoeste 0.1 -- -- 97
2020-03-21 06:00:00 9.5 4 Sudoeste 14 Sudoeste 0.8 -- -- 99
2020-03-21 05:00:00 10.1 4 Oeste 9 Oeste 1.7 -- -- 99
2020-03-21 04:00:00 10 8 Sur 15 Sur 3.4 -- -- 95
2020-03-21 03:00:00 10.4 4 Este 6 Este 3.5 -- -- 99
2020-03-21 02:00:00 10.5 2 Este 9 Norte 2.5 -- -- 99
2020-03-21 01:00:00 10.5 0 Calma 7 Oeste 6.2 -- -- 99
2020-03-21 00:00:00 10.7 3 Norte 10 Norte 5 -- -- 99
2020-03-20 23:00:00 10.9 3 Noroeste 23 Noroeste 9.5 -- -- 99
2020-03-20 22:00:00 11.9 9 Oeste 19 Oeste 3.6 -- -- 99
2020-03-20 21:00:00 12.7 3 Sur 9 Oeste 0.1 -- -- 99
2020-03-20 20:00:00 12.9 3 Norte 11 Norte 0 -- -- 99
2020-03-20 19:00:00 13.1 4 Noroeste 11 Norte 0.3 -- -- 99
2020-03-20 18:00:00 13.3 4 Noroeste 7 Noroeste 0.7 -- -- 99
2020-03-20 17:00:00 13.3 0 Calma 8 Sur 3.8 -- -- 98
2020-03-20 16:00:00 13.7 3 Norte 10 Norte 2.6 -- -- 97
2020-03-20 15:00:00 13.9 4 Noroeste 6 Oeste 0.2 -- -- 90
2020-03-20 14:00:00 13.6 4 Este 11 Este 0 -- -- 93
2020-03-20 13:00:00 13.3 6 Este 12 Este 0.1 -- -- 97
2020-03-20 12:00:00 13 8 Este 13 Sudeste 0.2 -- -- 95
2020-03-20 11:00:00 13.6 7 Sudeste 12 Este 0 -- -- 86
2020-03-20 10:00:00 13.8 7 Este 14 Este 0 -- -- 80
2020-03-20 09:00:00 13.6 6 Este 15 Este 0 -- -- 83
2020-03-20 08:00:00 12.9 7 Este 15 Este 0 -- -- 87
2020-03-20 07:00:00 12.8 9 Este 15 Nordeste 0 -- -- 85
2020-03-20 06:00:00 13.8 10 Este 15 Este 0 -- -- 72
2020-03-20 05:00:00 13.7 8 Este 13 Este 0 -- -- 71
2020-03-20 04:00:00 14.4 7 Este 16 Nordeste 0 -- -- 66
2020-03-20 03:00:00 13.9 8 Este 15 Este 0 -- -- 69
2020-03-20 02:00:00 14.6 10 Este 14 Este 0 -- -- 66
2020-03-20 01:00:00 14.9 6 Este 12 Este 0 -- -- 65
2020-03-20 00:00:00 15.8 5 Nordeste 9 Este 0 -- -- 61
2020-03-19 23:00:00 15.2 3 Nordeste 7 Nordeste 0 -- -- 63
2020-03-19 22:00:00 13.8 0 Calma 9 Este 0 -- -- 67
2020-03-19 21:00:00 15.9 3 Nordeste 7 Este 0 -- -- 57
2020-03-19 20:00:00 17.7 3 Nordeste 12 Nordeste 0 -- -- 51
2020-03-19 19:00:00 20.1 5 Nordeste 15 Nordeste 0 -- -- 43
2020-03-19 18:00:00 20.4 7 Nordeste 14 Nordeste 0 -- -- 41
2020-03-19 17:00:00 21.8 6 Nordeste 18 Este 0 -- -- 37
2020-03-19 16:00:00 22.2 8 Nordeste 22 Este 0 -- -- 37
2020-03-19 15:00:00 21.1 10 Nordeste 22 Nordeste 0 -- -- 39
2020-03-19 14:00:00 21 10 Nordeste 27 Nordeste 0 -- -- 40
2020-03-19 13:00:00 19 12 Nordeste 24 Este 0 -- -- 44
2020-03-19 12:00:00 17.3 12 Nordeste 24 Nordeste 0 -- -- 48
2020-03-19 11:00:00 15.8 15 Este 27 Este 0 -- -- 52
2020-03-19 10:00:00 13.7 16 Este 25 Este 0 -- -- 55
2020-03-19 09:00:00 12.3 10 Este 19 Este 0 -- -- 58
2020-03-19 08:00:00 11.1 11 Este 22 Este 0 -- -- 63
2020-03-19 07:00:00 11.5 14 Este 22 Este 0 -- -- 60
2020-03-19 06:00:00 12.5 10 Nordeste 20 Este 0 -- -- 56
2020-03-19 05:00:00 12.4 6 Este 17 Este 0 -- -- 60
2020-03-19 04:00:00 13.4 11 Este 25 Este 0 -- -- 56
2020-03-19 03:00:00 14.2 13 Nordeste 25 Nordeste 0 -- -- 52
2020-03-19 02:00:00 15 11 Nordeste 28 Este 0 -- -- 51
2020-03-19 01:00:00 15.8 12 Nordeste 25 Este 0 -- -- 48
2020-03-19 00:00:00 15.6 9 Este 24 Este 0 -- -- 56
2020-03-18 23:00:00 16.7 14 Nordeste 28 Este 0 -- -- 53
2020-03-18 22:00:00 17 11 Nordeste 24 Nordeste 0 -- -- 56
2020-03-18 21:00:00 18.1 14 Nordeste 29 Nordeste 0 -- -- 52
2020-03-18 20:00:00 18.8 12 Nordeste 28 Nordeste 0 -- -- 50
2020-03-18 19:00:00 20.2 18 Nordeste 32 Nordeste 0 -- -- 46
2020-03-18 18:00:00 22.3 15 Nordeste 30 Nordeste 0 -- -- 39
2020-03-18 17:00:00 22.9 15 Nordeste 28 Este 0 -- -- 37
2020-03-18 16:00:00 23.8 13 Este 31 Este 0 -- -- 34
2020-03-18 15:00:00 22.4 14 Nordeste 32 Nordeste 0 -- -- 36
2020-03-18 14:00:00 21.7 15 Nordeste 29 Este 0 -- -- 38
2020-03-18 13:00:00 20.5 14 Nordeste 31 Este 0 -- -- 43
2020-03-18 12:00:00 19.3 16 Este 33 Este 0 -- -- 46
2020-03-18 11:00:00 17.4 13 Nordeste 32 Nordeste 0 -- -- 52
2020-03-18 10:00:00 15.7 11 Nordeste 24 Nordeste 0 -- -- 57
2020-03-18 09:00:00 13.7 12 Nordeste 24 Nordeste 0 -- -- 63
2020-03-18 08:00:00 12.8 8 Nordeste 33 Nordeste 0 -- -- 67
2020-03-18 07:00:00 12.8 15 Nordeste 33 Este 0 -- -- 67
2020-03-18 06:00:00 13.3 22 Nordeste 41 Este 0 -- -- 66
2020-03-18 05:00:00 13.8 19 Nordeste 33 Este 0 -- -- 70
2020-03-18 04:00:00 14.1 13 Nordeste 23 Este 0 -- -- 71
2020-03-18 03:00:00 14.5 7 Nordeste 24 Nordeste 0 -- -- 71
2020-03-18 02:00:00 14.5 14 Nordeste 26 Nordeste 0 -- -- 72
2020-03-18 01:00:00 15 15 Nordeste 27 Nordeste 0 -- -- 70
2020-03-18 00:00:00 15.2 14 Nordeste 24 Nordeste 0 -- -- 67
2020-03-17 23:00:00 13.8 6 Nordeste 12 Nordeste 0 -- -- 57
2020-03-17 22:00:00 11.1 3 Nordeste 11 Nordeste 0 -- -- 75
2020-03-17 21:00:00 14.7 6 Nordeste 12 Nordeste 0.1 -- -- 51
2020-03-17 20:00:00 12.4 2 Norte 7 Norte 0 -- -- 51
2020-03-17 19:00:00 16.5 3 Norte 26 Nordeste 0 -- -- 37
2020-03-17 18:00:00 17.7 17 Nordeste 31 Este 0 -- -- 29
2020-03-17 17:00:00 18.8 13 Este 31 Este 0 -- -- 31
2020-03-17 16:00:00 18.2 15 Nordeste 40 Este 0 -- -- 28
2020-03-17 15:00:00 18.3 17 Nordeste 33 Este 0 -- -- 30
2020-03-17 14:00:00 17.4 15 Este 36 Este 0 -- -- 37
2020-03-17 13:00:00 16.4 15 Este 31 Este 0 -- -- 42
2020-03-17 12:00:00 13.2 20 Este 38 Este 0 -- -- 52
2020-03-17 11:00:00 11.6 17 Nordeste 38 Este 0 -- -- 56
2020-03-17 10:00:00 10.1 17 Nordeste 30 Nordeste 0 -- -- 64
2020-03-17 09:00:00 7.6 6 Nordeste 15 Nordeste 0 -- -- 81
2020-03-17 08:00:00 7 6 Norte 20 Nordeste 0.1 -- -- 91
2020-03-17 07:00:00 6.9 10 Este 27 Este 0.2 -- -- 88
2020-03-17 06:00:00 7 7 Nordeste 23 Nordeste 0 -- -- 82
2020-03-17 05:00:00 7.4 14 Nordeste 26 Nordeste 0 -- -- 74
2020-03-17 04:00:00 5.8 8 Nordeste 15 Nordeste 0 -- -- 77
2020-03-17 03:00:00 3.9 0 Calma 8 Nordeste 0 -- -- 88
2020-03-17 02:00:00 5.7 3 Norte 12 Nordeste 0 -- -- 81
2020-03-17 01:00:00 6.3 5 Nordeste 15 Norte 0 -- -- 76
2020-03-17 00:00:00 7.2 4 Norte 18 Norte 0 -- -- 77
2020-03-16 23:00:00 7.6 5 Norte 14 Norte 0 -- -- 76
2020-03-16 22:00:00 8 5 Norte 20 Norte 0 -- -- 76
2020-03-16 21:00:00 8.9 9 Norte 21 Norte 0 -- -- 73
2020-03-16 20:00:00 9 6 Noroeste 21 Noroeste 0 -- -- 76
2020-03-16 19:00:00 9 8 Noroeste 31 Noroeste 0 -- -- 78
2020-03-16 18:00:00 9.9 16 Noroeste 45 Norte 0 -- -- 66
2020-03-16 17:00:00 10.8 18 Noroeste 38 Oeste 0 -- -- 60
2020-03-16 16:00:00 10.9 20 Noroeste 41 Noroeste 0 -- -- 56
2020-03-16 15:00:00 11.6 19 Noroeste 41 Noroeste 0 -- -- 50
2020-03-16 14:00:00 12.1 19 Noroeste 39 Noroeste 0 -- -- 45
2020-03-16 13:00:00 12.5 18 Noroeste 39 Noroeste 0 -- -- 43
2020-03-16 12:00:00 11.9 14 Noroeste 39 Noroeste 0 -- -- 45
2020-03-16 11:00:00 11.3 14 Noroeste 32 Noroeste 0 -- -- 45
2020-03-16 10:00:00 9.1 13 Oeste 26 Oeste 0 -- -- 59
2020-03-16 09:00:00 6 8 Sudoeste 19 Sudoeste 0 -- -- 79
2020-03-16 08:00:00 3.8 8 Sudoeste 25 Sudoeste 0 -- -- 92
2020-03-16 07:00:00 4 9 Sudoeste 23 Sudoeste 0 -- -- 91
2020-03-16 06:00:00 3.3 5 Sudoeste 16 Sudoeste 0 -- -- 91
2020-03-16 05:00:00 4.2 8 Oeste 16 Oeste 0 -- -- 83
2020-03-16 04:00:00 5 9 Oeste 18 Oeste 0 -- -- 79
2020-03-16 03:00:00 5.7 10 Oeste 22 Sudoeste 0 -- -- 79
2020-03-16 02:00:00 6.7 9 Oeste 20 Oeste 0 -- -- 68
2020-03-16 01:00:00 7.8 12 Oeste 23 Oeste 0 -- -- 72
2020-03-16 00:00:00 9.4 13 Oeste 33 Noroeste 0 -- -- 64
2020-03-15 23:00:00 10.7 10 Oeste 37 Oeste 0 -- -- 70
2020-03-15 22:00:00 13 17 Oeste 30 Oeste 0 -- -- 65
2020-03-15 21:00:00 14.9 15 Oeste 32 Oeste 0 -- -- 53
2020-03-15 20:00:00 16.2 16 Oeste 35 Oeste 0 -- -- 50
2020-03-15 19:00:00 16.8 17 Oeste 35 Oeste 0 -- -- 60
2020-03-15 18:00:00 18.7 14 Oeste 32 Noroeste 0 -- -- 58
2020-03-15 17:00:00 19.6 22 Oeste 37 Oeste 0 -- -- 57
2020-03-15 16:00:00 22.5 19 Oeste 32 Oeste 0 -- -- 49
2020-03-15 15:00:00 22.4 13 Oeste 29 Sudoeste 0 -- -- 51
2020-03-15 14:00:00 22.6 9 Oeste 22 Oeste 0 -- -- 49
2020-03-15 13:00:00 21.6 11 Oeste 19 Oeste 0 -- -- 49
2020-03-15 12:00:00 20 3 Oeste 9 Oeste 0 -- -- 58
2020-03-15 11:00:00 18 2 Norte 6 Norte 0 -- -- 60
2020-03-15 10:00:00 15.1 0 Calma 5 Este 0 -- -- 71
2020-03-15 09:00:00 11.6 0 Calma 6 Este 0 -- -- 89
2020-03-15 08:00:00 8.9 0 Calma 7 Este 0 -- -- 95
2020-03-15 07:00:00 9.6 3 Este 4 Este 0 -- -- 96
2020-03-15 06:00:00 7.6 0 Calma 3 Este 0 -- -- 98
2020-03-15 05:00:00 8 0 Calma 3 Este 0 -- -- 99
2020-03-15 04:00:00 8 0 Calma 3 Oeste 0 -- -- 96
2020-03-15 03:00:00 9.5 0 Calma 5 Nordeste 0 -- -- 92
2020-03-15 02:00:00 9.4 0 Calma 4 Este 0 -- -- 93
2020-03-15 01:00:00 10.6 0 Calma 5 Este 0 -- -- 86
2020-03-15 00:00:00 10.5 2 Este 5 Sur 0 -- -- 89
2020-03-14 23:00:00 11.4 0 Calma 3 Sur 0 -- -- 85
2020-03-14 22:00:00 12.1 0 Calma 4 Sur 0 -- -- 83
2020-03-14 21:00:00 13.8 0 Calma 4 Sudoeste 0 -- -- 75
2020-03-14 20:00:00 14.1 2 Sudoeste 3 Noroeste 0 -- -- 75
2020-03-14 19:00:00 20.5 2 Noroeste 8 Oeste 0 -- -- 55
2020-03-14 18:00:00 22.4 4 Noroeste 12 Noroeste 0 -- -- 45
2020-03-14 17:00:00 22.5 5 Noroeste 10 Noroeste 0 -- -- 47
2020-03-14 16:00:00 22.3 4 Noroeste 13 Oeste 0 -- -- 52
2020-03-14 15:00:00 21.3 3 Noroeste 11 Noroeste 0 -- -- 54
2020-03-14 14:00:00 19.4 2 Nordeste 11 Nordeste 0 -- -- 62
2020-03-14 13:00:00 17.4 5 Nordeste 14 Este 0 -- -- 72
2020-03-14 12:00:00 14.7 5 Nordeste 11 Nordeste 0 -- -- 84
2020-03-14 11:00:00 13.2 4 Este 9 Este 0 -- -- 90
2020-03-14 10:00:00 11.5 4 Este 8 Este 0 -- -- 99
2020-03-14 09:00:00 10.3 4 Este 7 Este 0 -- -- 99
2020-03-14 08:00:00 8.4 4 Este 6 Este 0 -- -- 99
2020-03-14 07:00:00 6.5 0 Calma 4 Nordeste 0 -- -- 99
2020-03-14 06:00:00 6.6 0 Calma 4 Noroeste 0 -- -- 99
2020-03-14 05:00:00 8.4 2 Oeste 7 Noroeste 0 -- -- 99
2020-03-14 04:00:00 8.9 3 Oeste 8 Oeste 0 -- -- 99
2020-03-14 03:00:00 8.2 0 Calma 6 Noroeste 0 -- -- 99
2020-03-14 02:00:00 9.4 4 Oeste 6 Oeste 0 -- -- 99
2020-03-14 01:00:00 9.7 2 Oeste 5 Sudoeste 0 -- -- 99
2020-03-14 00:00:00 9.7 0 Calma 4 Oeste 0 -- -- 98
2020-03-13 23:00:00 11.1 3 Oeste 8 Oeste 0 -- -- 96
2020-03-13 22:00:00 12.1 3 Oeste 9 Sudoeste 0 -- -- 93
2020-03-13 21:00:00 12 3 Sudoeste 8 Oeste 0 -- -- 92
2020-03-13 20:00:00 13.7 4 Oeste 15 Oeste 0 -- -- 87
2020-03-13 19:00:00 17.2 9 Oeste 17 Oeste 0 -- -- 72
2020-03-13 18:00:00 18.5 8 Oeste 17 Oeste 0 -- -- 66
2020-03-13 17:00:00 18 6 Oeste 16 Oeste 0 -- -- 67
2020-03-13 16:00:00 17.6 6 Noroeste 16 Oeste 0 -- -- 67
2020-03-13 15:00:00 15.7 6 Noroeste 15 Oeste 0 -- -- 74
2020-03-13 14:00:00 13.5 6 Oeste 14 Sudoeste 0 -- -- 81
2020-03-13 13:00:00 12.1 5 Oeste 13 Oeste 0 -- -- 88
2020-03-13 12:00:00 11.3 4 Oeste 12 Oeste 0 -- -- 94
2020-03-13 11:00:00 10.8 5 Oeste 14 Oeste 0 -- -- 97
2020-03-13 10:00:00 10.7 8 Sudoeste 18 Oeste 0 -- -- --
2020-03-13 09:00:00 10.7 5 Oeste 13 Oeste 0 -- -- 99
2020-03-13 08:00:00 10.1 6 Oeste 14 Oeste 0 -- -- 99
2020-03-13 07:00:00 10.1 6 Oeste 16 Oeste 0 -- -- 99
2020-03-13 06:00:00 8.5 4 Sudoeste 9 Oeste 0 -- -- 99
2020-03-13 05:00:00 9.2 4 Sudoeste 10 Oeste 0 -- -- 98
2020-03-13 04:00:00 10.5 5 Oeste 10 Oeste 0 -- -- 96
2020-03-13 03:00:00 11.1 6 Oeste 14 Sudoeste 0 -- -- 95
2020-03-13 02:00:00 13 6 Sudoeste 12 Sudoeste 0 -- -- 88
2020-03-13 01:00:00 12.4 6 Sudoeste 10 Sudoeste 0 -- -- 89
2020-03-13 00:00:00 13.4 4 Oeste 11 Sudoeste 0 -- -- 82
2020-03-12 23:00:00 15.5 6 Sudoeste 13 Sudoeste 0 -- -- 74
2020-03-12 22:00:00 15.1 3 Sudoeste 11 Sudoeste 0 -- -- 74
2020-03-12 21:00:00 17.5 6 Sudoeste 15 Oeste 0 -- -- 66
2020-03-12 20:00:00 18.7 6 Oeste 16 Oeste 0 -- -- 59
2020-03-12 19:00:00 21.4 8 Oeste 20 Oeste 0 -- -- 50
2020-03-12 18:00:00 23.4 10 Oeste 28 Oeste 0 -- -- 45
2020-03-12 17:00:00 24.7 16 Oeste 26 Oeste 0 -- -- 39
2020-03-12 16:00:00 26 14 Oeste 23 Oeste 0 -- -- 33
2020-03-12 15:00:00 27.5 6 Sudoeste 26 Sur 0 -- -- 29
2020-03-12 14:00:00 25.8 7 Sudeste 15 Este 0 -- -- 31
2020-03-12 13:00:00 24.4 6 Este 17 Este 0 -- -- 36
2020-03-12 12:00:00 22.3 10 Este 18 Este 0 -- -- 46
2020-03-12 11:00:00 18.7 12 Este 18 Este 0 -- -- 63
2020-03-12 10:00:00 16 8 Este 14 Este 0 -- -- 69
2020-03-12 09:00:00 13.2 6 Este 11 Este 0 -- -- 77
2020-03-12 08:00:00 10.9 6 Este 12 Este 0 -- -- 88
2020-03-12 07:00:00 11.1 8 Este 15 Sudeste 0 -- -- 87
2020-03-12 06:00:00 12.4 10 Este 14 Este 0 -- -- 83
2020-03-12 05:00:00 12.5 6 Sudeste 12 Oeste 0 -- -- 81
2020-03-12 04:00:00 13.7 4 Este 12 Este 0 -- -- 77
2020-03-12 03:00:00 13.2 5 Sudeste 13 Este 0 -- -- 79
2020-03-12 02:00:00 14.1 11 Este 14 Este 0 -- -- 76
2020-03-12 01:00:00 14.6 9 Este 12 Este 0 -- -- 75
2020-03-12 00:00:00 16.1 9 Este 11 Este 0 -- -- 69
2020-03-11 23:00:00 17.6 10 Este 15 Este 0 -- -- 61
2020-03-11 22:00:00 18.9 9 Este 14 Este 0 -- -- 57
2020-03-11 21:00:00 20 8 Este 13 Este 0 -- -- 51
2020-03-11 20:00:00 21.1 6 Este 10 Nordeste 0 -- -- 50
2020-03-11 19:00:00 24.2 5 Nordeste 12 Nordeste 0 -- -- 40
2020-03-11 18:00:00 26.1 5 Nordeste 17 Nordeste 0 -- -- 36
2020-03-11 17:00:00 26.7 8 Nordeste 20 Nordeste 0 -- -- 32
2020-03-11 16:00:00 26.9 10 Nordeste 15 Nordeste 0 -- -- 33
2020-03-11 15:00:00 27.8 7 Nordeste 15 Este 0 -- -- 32
2020-03-11 14:00:00 26.7 8 Nordeste 15 Este 0 -- -- 33
2020-03-11 13:00:00 25.2 5 Este 13 Este 0 -- -- 40
2020-03-11 12:00:00 20.7 5 Este 14 Nordeste 0 -- -- 48
2020-03-11 11:00:00 18.4 7 Este 18 Este 0 -- -- 57
2020-03-11 10:00:00 14.2 12 Este 17 Este 0 -- -- 71
2020-03-11 09:00:00 11.5 8 Este 13 Este 0 -- -- 80
2020-03-11 08:00:00 9.6 8 Este 13 Este 0 -- -- 85
2020-03-11 07:00:00 9.3 8 Este 12 Este 0 -- -- 85
2020-03-11 06:00:00 9.7 9 Este 12 Este 0 -- -- 84
2020-03-11 05:00:00 10.4 5 Este 9 Este 0 -- -- 79
2020-03-11 04:00:00 10 6 Este 9 Este 0 -- -- 81
2020-03-11 03:00:00 10.8 5 Este 10 Este 0 -- -- 77
2020-03-11 02:00:00 12.3 5 Este 13 Este 0 -- -- 70
2020-03-11 01:00:00 10.9 4 Este 8 Este 0 -- -- 78
2020-03-11 00:00:00 10.6 0 Calma 6 Este 0 -- -- 78
2020-03-10 23:00:00 10.9 0 Calma 4 Sur 0 -- -- 79
2020-03-10 22:00:00 11.9 0 Calma 4 Sur 0 -- -- 74
2020-03-10 21:00:00 13.4 0 Calma 2 Sur 0 -- -- 68
2020-03-10 20:00:00 14.5 0 Calma 5 Noroeste 0 -- -- 67
2020-03-10 19:00:00 21.9 2 Noroeste 6 Noroeste 0 -- -- 43
2020-03-10 18:00:00 24.7 4 Noroeste 8 Oeste 0 -- -- 30
2020-03-10 17:00:00 25.6 3 Oeste 10 Noroeste 0 -- -- 25
2020-03-10 16:00:00 26.1 0 Calma 10 Nordeste 0 -- -- 27
2020-03-10 15:00:00 24.1 4 Este 10 Nordeste 0 -- -- 29
2020-03-10 14:00:00 23.1 5 Este 11 Este 0 -- -- 33
2020-03-10 13:00:00 20.9 3 Nordeste 10 Este 0 -- -- 39
2020-03-10 12:00:00 17.7 4 Nordeste 13 Este 0 -- -- 48
2020-03-10 11:00:00 14.8 7 Este 16 Este 0 -- -- 56
2020-03-10 10:00:00 11.3 12 Este 16 Este 0 -- -- 71
2020-03-10 09:00:00 9 6 Este 10 Este 0 -- -- 82
2020-03-10 08:00:00 6.1 7 Este 9 Este 0 -- -- 90
2020-03-10 07:00:00 6 7 Este 9 Este 0 -- -- 90
2020-03-10 06:00:00 5.6 0 Calma 9 Este 0 -- -- 94
2020-03-10 05:00:00 6 0 Calma 5 Sur 0 -- -- 94
2020-03-10 04:00:00 5.7 0 Calma 5 Oeste 0 -- -- 96
2020-03-10 03:00:00 8 5 Oeste 10 Sudoeste 0 -- -- 86
2020-03-10 02:00:00 9.4 6 Oeste 13 Oeste 0 -- -- 82
2020-03-10 01:00:00 10.4 5 Sudoeste 10 Sudoeste 0 -- -- 78
2020-03-10 00:00:00 11 6 Sudoeste 10 Sudoeste 0 -- -- 74